Burns, Texas
Current Conditions -  °F | °C
As of 6:40 PM on Thursday 18 Dec 2014 (Local Time) from KTXK Reporting Station
Overcast Overcast  
Wind Chill: 44°   Ceiling: 1000
Heat Index: 46°   Visibility: 8mi
Dew Point: 43°   Wind: 5mph
Humidity: 89%   Direction: 50°NE
Pressure: 30.17"   Gusts: NA
Location:  33.474°N, 94.2882°W
Report Text: KTXK 190040Z 05004KT 8SM BKN010 OVC031 08/06 A3017 RMK AO2 T00780061
Loading
Personal Weather Stations






























Interactive Weather Map New forecast layout! Learn more

10-Day Weather Forecast

Advertisements
Track Severe Weather on mobile